22 mai 2022

Temps Code Temps Temp. Vue Des nuages Vent METAR/SPECI
08:30
V
15 °C 10 km+ - Var   Var 2 kt METAR LFAQ 220630Z AUTO VRB02KT CAVOK 15/12 Q1017 NOSIG
08:00
V
12 °C 10 km+ - 020°   020° 2 kt METAR LFAQ 220600Z AUTO 02002KT CAVOK 12/10 Q1017 NOSIG
07:30
V
11 °C 10 km+ - 360°   360° 2 kt METAR LFAQ 220530Z AUTO 36002KT CAVOK 11/10 Q1017
07:00
V
10 °C 10 km+ - 010°   010° 3 kt METAR LFAQ 220500Z AUTO 01003KT CAVOK 10/09 Q1017
06:30
V
9 °C 10 km+ - 060°   060° 2 kt METAR LFAQ 220430Z AUTO 06002KT CAVOK 09/08 Q1017
06:00
V
9 °C 10 km+ - 020°   020° 2 kt METAR LFAQ 220400Z AUTO 02002KT CAVOK 09/08 Q1017
05:30
V
10 °C 10 km+ - 030°   030° 2 kt METAR LFAQ 220330Z AUTO 03002KT CAVOK 10/09 Q1017
05:00
V
10 °C 10 km+ - 360°   360° 5 kt METAR LFAQ 220300Z AUTO 36005KT CAVOK 10/09 Q1018
04:30
V
10 °C 10 km+ - 360°   360° 4 kt METAR LFAQ 220230Z AUTO 36004KT CAVOK 10/09 Q1018
04:00
V
10 °C 10 km+ - 020°   020° 3 kt METAR LFAQ 220200Z AUTO 02003KT CAVOK 10/09 Q1018
03:30
V
9 °C 10 km+ - 010°   010° 5 kt METAR LFAQ 220130Z AUTO 01005KT CAVOK 09/09 Q1018
03:00
V
10 °C 10 km+ - 360°   360° 3 kt METAR LFAQ 220100Z AUTO 36003KT CAVOK 10/09 Q1018
02:30
V
10 °C 10 km+ - 360°   360° 4 kt METAR LFAQ 220030Z AUTO 36004KT CAVOK 10/09 Q1019
02:00
V
11 °C 10 km+ - 340°   340° 3 kt METAR LFAQ 220000Z AUTO 34003KT CAVOK 11/10 Q1019
01:30
V
11 °C 10 km+ - 020°   020° 3 kt METAR LFAQ 212330Z AUTO 02003KT CAVOK 11/10 Q1019
01:00
V
11 °C 10 km+ - 060°   060° 4 kt METAR LFAQ 212300Z AUTO 06004KT CAVOK 11/10 Q1019
00:30
V
12 °C 10 km+ - 050°   050° 3 kt METAR LFAQ 212230Z AUTO 05003KT CAVOK 12/10 Q1019
00:00
V
12 °C 10 km+ - 060°   060° 2 kt METAR LFAQ 212200Z AUTO 06002KT CAVOK 12/11 Q1020

21 mai 2022

Temps Code Temps Temp. Vue Des nuages Vent METAR/SPECI
23:30
V
12 °C 10 km+ - 350°   350° 6 kt METAR LFAQ 212130Z AUTO 35006KT CAVOK 12/11 Q1020
23:00
V
12 °C 10 km+ - 360°   360° 5 kt METAR LFAQ 212100Z AUTO 36005KT CAVOK 12/11 Q1020
22:30
V
13 °C 10 km+ - 360°   360° 4 kt METAR LFAQ 212030Z AUTO 36004KT CAVOK 13/11 Q1020
22:00
V
14 °C 10 km+ - 350°   350° 5 kt METAR LFAQ 212000Z AUTO 35005KT CAVOK 14/11 Q1020
21:30
V
15 °C 10 km+ - 330°   330° 7 kt METAR LFAQ 211930Z AUTO 33007KT CAVOK 15/11 Q1020
21:00
V
16 °C 10 km+ - 330°   330° 7 kt METAR LFAQ 211900Z AUTO 33007KT CAVOK 16/11 Q1020
20:30
V
18 °C 10 km+ - 330°   330° 8 kt METAR LFAQ 211830Z AUTO 33008KT CAVOK 18/11 Q1020
20:00
V
19 °C 10 km+ 4.600 ft 340°   340° 7 kt METAR LFAQ 211800Z AUTO 34007KT 310V010 9999 BKN046 19/10 Q1020
19:30
V
20 °C 10 km+ 4.800 ft 240°   240° 4 kt METAR LFAQ 211730Z AUTO 24004KT 190V320 9999 BKN048 20/10 Q1020
19:00
V
19 °C 10 km+ - 290°   290° 4 kt METAR LFAQ 211700Z AUTO 29004KT 260V330 9999 FEW044 19/10 Q1020 NOSIG
18:30
V
20 °C 10 km+ - 290°   290° 5 kt METAR LFAQ 211630Z AUTO 29005KT 250V330 9999 FEW048 20/10 Q1020 NOSIG
18:00
V
20 °C 10 km+ 4.800 ft 210°   210° 4 kt METAR LFAQ 211600Z AUTO 21004KT 160V270 9999 BKN048 20/10 Q1021 NOSIG
17:30
V
20 °C 10 km+ - 250°   250° 5 kt METAR LFAQ 211530Z AUTO 25005KT 200V300 9999 FEW048 20/10 Q1021 NOSIG
17:00
V
20 °C 10 km+ 5.000 ft 290°   290° 8 kt METAR LFAQ 211500Z AUTO 29008KT 260V330 9999 SCT042 BKN050 20/09 Q1021 NOSIG
16:30
V
20 °C 10 km+ - 260°   260° 6 kt METAR LFAQ 211430Z AUTO 26006KT 200V310 9999 SCT043 20/10 Q1021 NOSIG
16:00
V
19 °C 10 km+ 4.600 ft 260°   260° 6 kt METAR LFAQ 211400Z AUTO 26006KT 210V320 9999 FEW040 BKN046 19/10 Q1022 NOSIG
15:30
V
20 °C 10 km+ 23.000 ft 260°   260° 8 kt METAR LFAQ 211330Z AUTO 26008KT 220V290 9999 SCT045 SCT052 BKN230 20/10 Q1022 NOSIG
15:00
V
19 °C 10 km+ 4.700 ft 250°   250° 7 kt METAR LFAQ 211300Z AUTO 25007KT 190V300 9999 SCT036 BKN047 BKN180 19/10 Q1022 NOSIG
14:30
V
18 °C 10 km+ 4.400 ft 270°   270° 5 kt METAR LFAQ 211230Z AUTO 27005KT 240V320 9999 SCT036 BKN044 18/10 Q1022 NOSIG
14:00
V
18 °C 10 km+ 3.400 ft 260°   260° 7 kt METAR LFAQ 211200Z AUTO 26007KT 230V300 9999 BKN034 BKN044 18/10 Q1023 NOSIG
13:30
V
18 °C 10 km+ 4.100 ft 290°   290° 7 kt METAR LFAQ 211130Z AUTO 29007KT 250V320 9999 SCT032 BKN041 18/10 Q1023 NOSIG
13:00
V
17 °C 10 km+ 3.700 ft 280°   280° 8 kt METAR LFAQ 211100Z AUTO 28008KT 230V310 9999 FEW029 BKN037 BKN044 17/10 Q1023 NOSIG
12:30
V
17 °C 10 km+ 4.000 ft 280°   280° 7 kt METAR LFAQ 211030Z AUTO 28007KT 240V320 9999 SCT027 SCT033 BKN040 17/11 Q1023 NOSIG
12:00
M
17 °C 10 km+ 2.400 ft 280°   280° 6 kt METAR LFAQ 211000Z AUTO 28006KT 230V350 9999 BKN024 BKN030 17/10 Q1023 NOSIG
11:30
V
16 °C 10 km+ - 300°   300° 6 kt METAR LFAQ 210930Z AUTO 30006KT 250V330 9999 SCT023 SCT029 16/10 Q1023 NOSIG
11:00
M
16 °C 10 km+ 1.900 ft 300°   300° 7 kt METAR LFAQ 210900Z AUTO 30007KT 270V340 9999 BKN019 BKN024 16/10 Q1023 NOSIG
10:30
M
15 °C 10 km+ 1.500 ft 280°   280° 6 kt METAR LFAQ 210830Z AUTO 28006KT 250V320 9999 BKN015 15/10 Q1023 NOSIG
10:00
M
14 °C 10 km+ 1.200 ft 260°   260° 5 kt METAR LFAQ 210800Z AUTO 26005KT 190V290 9999 OVC012 14/11 Q1023 BECMG NSC
09:30
M
13 °C 10 km+ 1.000 ft 290°   290° 7 kt METAR LFAQ 210730Z AUTO 29007KT 9999 OVC010 13/10 Q1023 BECMG NSC
09:00
M
13 °C 10 km+ 1.100 ft 280°   280° 7 kt METAR LFAQ 210700Z AUTO 28007KT 250V320 9999 BKN011 13/10 Q1023 BECMG NSC
08:30
V
12 °C 10 km+ - 240°   240° 8 kt METAR LFAQ 210630Z AUTO 24008KT CAVOK 12/10 Q1023 NOSIG
08:00
V
11 °C 10 km+ - 230°   230° 6 kt METAR LFAQ 210600Z AUTO 23006KT CAVOK 11/10 Q1023
07:30
V
10 °C 10 km+ - 200°   200° 4 kt METAR LFAQ 210530Z AUTO 20004KT CAVOK 10/10 Q1023
07:00
V
10 °C 10 km+ - 230°   230° 4 kt METAR LFAQ 210500Z AUTO 23004KT CAVOK 10/09 Q1023
06:30
V
10 °C 10 km+ - 210°   210° 6 kt METAR LFAQ 210430Z AUTO 21006KT CAVOK 10/09 Q1023
06:00
V
10 °C 10 km+ - 220°   220° 7 kt METAR LFAQ 210400Z AUTO 22007KT CAVOK 10/09 Q1023
05:30
V
9 °C 10 km+ 19.000 ft 220°   220° 7 kt METAR LFAQ 210330Z AUTO 22007KT 9999 FEW019 BKN190 09/08 Q1022
05:00
M
10 °C 10 km+ 1.800 ft 260°   260° 6 kt METAR LFAQ 210300Z AUTO 26006KT 9999 OVC018 10/09 Q1022
04:30
V
8 °C 10 km+ 23.000 ft Var   Var 2 kt METAR LFAQ 210230Z AUTO VRB02KT 9999 SCT019 BKN230 08/07 Q1023
04:00
V
9 °C 10 km+ - 230°   230° 7 kt METAR LFAQ 210200Z AUTO 23007KT CAVOK 09/08 Q1023
03:30
V
9 °C 10 km+ - 220°   220° 8 kt METAR LFAQ 210130Z AUTO 22008KT CAVOK 09/08 Q1023
03:00
V
9 °C 10 km+ - 230°   230° 8 kt METAR LFAQ 210100Z AUTO 23008KT CAVOK 09/08 Q1022
02:30
V
9 °C 10 km+ - 230°   230° 8 kt METAR LFAQ 210030Z AUTO 23008KT CAVOK 09/08 Q1023
02:00
V
9 °C 10 km+ - 220°   220° 7 kt METAR LFAQ 210000Z AUTO 22007KT CAVOK 09/08 Q1023
01:30
V
9 °C 10 km+ - 210°   210° 8 kt METAR LFAQ 202330Z AUTO 21008KT CAVOK 09/08 Q1023
01:00
V
9 °C 10 km+ - 200°   200° 6 kt METAR LFAQ 202300Z AUTO 20006KT CAVOK 09/08 Q1023
00:30
V
9 °C 10 km+ - 180°   180° 4 kt METAR LFAQ 202230Z AUTO 18004KT CAVOK 09/08 Q1022
00:00
V
10 °C 10 km+ - 190°   190° 5 kt METAR LFAQ 202200Z AUTO 19005KT CAVOK 10/08 Q1022

20 mai 2022

Temps Code Temps Temp. Vue Des nuages Vent METAR/SPECI
23:30
V
9 °C 10 km+ - 170°   170° 4 kt METAR LFAQ 202130Z AUTO 17004KT CAVOK 09/08 Q1022
23:00
V
9 °C 10 km+ - 220°   220° 4 kt METAR LFAQ 202100Z AUTO 22004KT CAVOK 09/08 Q1022
22:30
V
10 °C 10 km+ - 260°   260° 7 kt METAR LFAQ 202030Z AUTO 26007KT CAVOK 10/08 Q1022
22:00
V
11 °C 10 km+ - 260°   260° 7 kt METAR LFAQ 202000Z AUTO 26007KT CAVOK 11/08 Q1022
21:30
V
12 °C 10 km+ - 280°   280° 7 kt METAR LFAQ 201930Z AUTO 28007KT CAVOK 12/08 Q1022
21:00
V
13 °C 10 km+ - 270°   270° 10 kt METAR LFAQ 201900Z AUTO 27010KT CAVOK 13/08 Q1021
20:30
V
14 °C 10 km+ - 280°   280° 12 kt METAR LFAQ 201830Z AUTO 28012KT CAVOK 14/08 Q1021
20:00
M
15 °C 9 km 2.700 ft 280°   280° 12 kt METAR LFAQ 201800Z AUTO 28012KT 9000 BKN027 15/09 Q1021
19:30
V
15 °C 10 km+ - 280°   280° 13 kt METAR LFAQ 201730Z AUTO 28013KT 9999 FEW026 SCT031 15/09 Q1020
19:00
M
15 °C 10 km+ 2.300 ft 290°   290° 13 kt METAR LFAQ 201700Z AUTO 29013KT 260V320 9999 BKN023 BKN032 15/10 Q1020 NOSIG
18:30
V
15 °C 10 km+ - 290°   290° 10 kt METAR LFAQ 201630Z AUTO 29010KT 260V330 9999 SCT019 SCT024 15/10 Q1020 NOSIG
18:00
M
14 °C 10 km+ 1.600 ft 300°   300° 14 kt METAR LFAQ 201600Z AUTO 30014KT 9999 BKN016 14/10 Q1020 NOSIG
17:30
M
14 °C 10 km+ 1.700 ft 290°   290° 15 kt METAR LFAQ 201530Z AUTO 29015KT 9999 BKN017 BKN025 OVC080 14/11 Q1019 NOSIG
17:00
M
16 °C 10 km+ 2.200 ft 290°   290° 15 kt METAR LFAQ 201500Z AUTO 29015KT 9999 BKN022 BKN027 OVC082 16/12 Q1019 NOSIG
16:30
M
15 °C 10 km+ 1.600 ft 290°   290° 15 kt METAR LFAQ 201430Z AUTO 29015KT 9999 BKN016 15/11 Q1018 NOSIG
16:00
M
15 °C 10 km+ 1.300 ft 300°   300° 15 kt METAR LFAQ 201400Z AUTO 30015KT 9999 BKN013 15/13 Q1018 TEMPO 32017G27KT BECMG BKN020
15:30
V
17 °C 10 km+ 10.000 ft 300°   300° 14 kt METAR LFAQ 201330Z AUTO 30014KT 9999 FEW011 BKN100 17/14 Q1017 TEMPO 32017G27KT BKN013
15:00
V
16 °C 10 km+ 8.800 ft 300°   300° 13 kt METAR LFAQ 201300Z AUTO 30013KT 9999 SCT010 SCT025 BKN088 16/14 Q1016 BECMG 32017G27KT BKN013
14:30
M
16 °C 10 km+ 1.000 ft 260°   260° 16 kt METAR LFAQ 201230Z AUTO 26016KT 220V300 9999 BKN010/// OVC015/// ///TCU 16/15 Q1016 BECMG 32017G27KT BKN013
14:00
M
17 °C 8 km 1.100 ft 220°   220° 17 kt METAR LFAQ 201200Z AUTO 22017KT 8000 -RA BKN011/// BKN017/// BKN036/// ///CB 17/16 Q1016 TEMPO 0700 TSGR BECMG 32017G27KT BKN013
13:30
V
17 °C 9 km 9.400 ft 220°   220° 13 kt METAR LFAQ 201130Z AUTO 22013KT 9000 -RA FEW038/// OVC094/// ///CB 17/16 Q1016 TEMPO 22025G50KT 0700 TSGR BECMG BKN013
13:00
M
17 °C 7 km 6.600 ft 190°   190° 10 kt METAR LFAQ 201100Z AUTO 19010KT 7000 -RA FEW026/// SCT050/// BKN066/// ///TCU 17/16 Q1015 TEMPO 22025G50KT 0700 TSGR BKN010 BKN040CB
12:30
M
16 °C 5 km - 140°   140° 12 kt METAR LFAQ 201030Z AUTO 14012KT 110V170 5000 -RA BR ///CB 16/16 Q1014 TEMPO 22025G50KT 0700 TSGR BKN010 BKN040CB
12:00
I
16 °C 2,8 km 7.800 ft 140°   140° 8 kt METAR LFAQ 201000Z AUTO 14008KT 2800 RA BR FEW044/// BKN078/// OVC092/// ///CB 16/15 Q1016 TEMPO 22025G50KT 0700 TSGR BKN010 BKN040CB
11:30
I
16 °C 4,7 km 10.000 ft 160°   160° 8 kt METAR LFAQ 200930Z AUTO 16008KT 4700 RA BR FEW036/// OVC100/// ///CB 16/15 Q1017 TEMPO 22025G50KT 0700 TSGR BKN010 BKN040CB
11:00
M
17 °C 6 km - 140°   140° 7 kt METAR LFAQ 200900Z AUTO 14007KT 6000 -RA ///CB 17/14 Q1017 TEMPO 22025G50KT 0700 TSGR BKN010 BKN040CB
10:30
V
17 °C 10 km+ - 100°   100° 6 kt METAR LFAQ 200830Z AUTO 10006KT 070V130 9999 FEW043 SCT130 17/14 Q1016 TEMPO 22025G50KT 0700 TSGR BKN010 BKN040CB
10:00
V
17 °C 10 km+ 6.800 ft 110°   110° 7 kt METAR LFAQ 200800Z AUTO 11007KT 9999 FEW031/// SCT043/// BKN068/// ///CB 17/14 Q1017 TEMPO 22025G50KT 0700 TSGR BKN010 BKN040CB
09:30
V
17 °C 10 km+ 16.000 ft 090°   090° 7 kt METAR LFAQ 200730Z AUTO 09007KT 9999 FEW031 SCT054 BKN160 17/13 Q1017 TEMPO 22025G50KT 0700 TSGR BKN010 BKN040CB
09:00
V
17 °C 10 km+ 3.200 ft 090°   090° 4 kt METAR LFAQ 200700Z AUTO 09004KT 060V120 9999 BKN032 OVC041 17/13 Q1018 TEMPO 22020G35KT 1500 TSRA BKN010 BKN040CB
08:30
V
16 °C 10 km+ 4.700 ft 060°   060° 5 kt METAR LFAQ 200630Z AUTO 06005KT 9999 FEW033 BKN047 BKN110 16/13 Q1019 TEMPO 22020G35KT 1500 TSRA BKN010 BKN040CB
08:00
V
16 °C 10 km+ - 040°   040° 5 kt METAR LFAQ 200600Z AUTO 04005KT 9999 FEW037 SCT052 16/13 Q1019
07:30
V
14 °C 10 km+ 3.700 ft 030°   030° 6 kt METAR LFAQ 200530Z AUTO 03006KT 9999 BKN037 BKN052 BKN190 14/12 Q1019
07:00
V
14 °C 10 km+ 3.800 ft 020°   020° 7 kt METAR LFAQ 200500Z AUTO 02007KT 9999 BKN038 BKN049 14/11 Q1019
Données plus anciennes

Télécharge notre application

Un accès facile à toute la météo aéronautique sur ton téléphone portable et ta tablette.
Avec de nombreuses fonctionnalités non disponibles sur le site Web, comme la prise en charge hors ligne et une liste personnelle d'aéroports.

Nous et des tiers suivons ton comportement sur Internet sur notre site Web à l'aide de cookies. Si tu continues, nous supposons que tu acceptes notre politique en matière de cookies. Apprendre plus